Balsam, North Carolina
Current Conditions -  °F | °C
As of 4:54 PM on Tuesday 25 Nov 2014 (Local Time) from KAVL Reporting Station
Clear Clear  
Wind Chill: 52°   Ceiling: Unl
Heat Index: 52°   Visibility: 10mi
Dew Point: 20°   Wind: 8mph
Humidity: 28%   Direction: 330°NNW
Pressure: 30.02"   Gusts: NA
Location:  35.43°N, 83.08°W
Report Text: KAVL 252154Z AUTO 33007KT 10SM CLR 11/M07 A3002 RMK AO2 SLP159 T01111067
Loading
Personal Weather Stations






























Interactive Weather Map New forecast layout! Learn more

10-Day Weather Forecast

Advertisements
Track Severe Weather on mobile